sensor_id;sensor_type;location;lat;lon;timestamp;pressure;altitude;pressure_sealevel;temperature;humidity
54900;BME280;40801;41.924;25.562;2023-11-21T00:01:56;99379.44;;;7.02;62.55
54900;BME280;40801;41.924;25.562;2023-11-21T00:04:22;99371.16;;;6.98;62.96
54900;BME280;40801;41.924;25.562;2023-11-21T00:06:47;99375.72;;;6.93;62.68
54900;BME280;40801;41.924;25.562;2023-11-21T00:09:14;99381.66;;;6.90;63.16
54900;BME280;40801;41.924;25.562;2023-11-21T00:11:43;99381.03;;;6.69;65.13
54900;BME280;40801;41.924;25.562;2023-11-21T00:14:08;99382.91;;;6.68;63.06
54900;BME280;40801;41.924;25.562;2023-11-21T00:16:34;99379.38;;;6.73;63.02
54900;BME280;40801;41.924;25.562;2023-11-21T00:18:59;99388.56;;;6.62;63.70
54900;BME280;40801;41.924;25.562;2023-11-21T00:21:25;99374.88;;;6.68;63.10
54900;BME280;40801;41.924;25.562;2023-11-21T00:23:51;99386.06;;;6.75;62.70
54900;BME280;40801;41.924;25.562;2023-11-21T00:26:16;99402.22;;;6.60;64.25
54900;BME280;40801;41.924;25.562;2023-11-21T00:28:42;99409.91;;;6.77;63.23
54900;BME280;40801;41.924;25.562;2023-11-21T00:31:07;99408.63;;;6.69;63.87
54900;BME280;40801;41.924;25.562;2023-11-21T00:33:33;99410.47;;;6.74;63.13
54900;BME280;40801;41.924;25.562;2023-11-21T00:35:59;99411.53;;;6.73;63.48
54900;BME280;40801;41.924;25.562;2023-11-21T00:38:24;99407.22;;;6.77;63.75
54900;BME280;40801;41.924;25.562;2023-11-21T00:40:49;99414.78;;;6.65;64.03
54900;BME280;40801;41.924;25.562;2023-11-21T00:43:15;99416.19;;;6.57;64.56
54900;BME280;40801;41.924;25.562;2023-11-21T00:45:40;99411.38;;;6.54;64.46
54900;BME280;40801;41.924;25.562;2023-11-21T00:48:06;99417.28;;;6.56;64.19
54900;BME280;40801;41.924;25.562;2023-11-21T00:50:33;99415.16;;;6.53;64.19
54900;BME280;40801;41.924;25.562;2023-11-21T00:52:59;99410.63;;;6.48;64.15
54900;BME280;40801;41.924;25.562;2023-11-21T00:55:24;99414.38;;;6.47;63.93
54900;BME280;40801;41.924;25.562;2023-11-21T00:57:51;99415.78;;;6.40;64.14
54900;BME280;40801;41.924;25.562;2023-11-21T01:00:17;99408.81;;;6.34;64.43
54900;BME280;40801;41.924;25.562;2023-11-21T01:02:45;99411.22;;;6.35;64.76
54900;BME280;40801;41.924;25.562;2023-11-21T01:05:11;99401.84;;;6.33;64.87
54900;BME280;40801;41.924;25.562;2023-11-21T01:07:37;99402.94;;;6.37;64.27
54900;BME280;40801;41.924;25.562;2023-11-21T01:10:03;99399.19;;;6.38;64.46
54900;BME280;40801;41.924;25.562;2023-11-21T01:12:32;99396.84;;;6.21;66.63
54900;BME280;40801;41.924;25.562;2023-11-21T01:14:57;99393.13;;;6.17;65.23
54900;BME280;40801;41.924;25.562;2023-11-21T01:17:26;99395.03;;;6.11;65.18
54900;BME280;40801;41.924;25.562;2023-11-21T01:19:52;99393.16;;;6.12;64.56
54900;BME280;40801;41.924;25.562;2023-11-21T01:22:17;99379.50;;;6.08;65.05
54900;BME280;40801;41.924;25.562;2023-11-21T01:24:47;99385.19;;;5.92;66.94
54900;BME280;40801;41.924;25.562;2023-11-21T01:27:12;99388.13;;;5.95;65.11
54900;BME280;40801;41.924;25.562;2023-11-21T01:29:38;99392.91;;;5.98;64.94
54900;BME280;40801;41.924;25.562;2023-11-21T01:32:03;99385.44;;;5.95;64.89
54900;BME280;40801;41.924;25.562;2023-11-21T01:34:29;99385.47;;;5.90;65.11
54900;BME280;40801;41.924;25.562;2023-11-21T01:36:55;99382.50;;;5.86;65.31
54900;BME280;40801;41.924;25.562;2023-11-21T01:39:21;99389.47;;;5.82;65.45
54900;BME280;40801;41.924;25.562;2023-11-21T01:41:50;99381.44;;;5.77;65.52
54900;BME280;40801;41.924;25.562;2023-11-21T01:44:16;99378.25;;;5.75;65.58
54900;BME280;40801;41.924;25.562;2023-11-21T01:46:42;99383.88;;;5.74;65.22
54900;BME280;40801;41.924;25.562;2023-11-21T01:49:09;99383.63;;;5.70;65.56
54900;BME280;40801;41.924;25.562;2023-11-21T01:51:39;99374.56;;;5.61;65.52
54900;BME280;40801;41.924;25.562;2023-11-21T01:54:06;99371.09;;;5.60;65.68
54900;BME280;40801;41.924;25.562;2023-11-21T01:56:32;99380.47;;;5.53;66.21
54900;BME280;40801;41.924;25.562;2023-11-21T01:58:58;99382.34;;;5.52;66.10
54900;BME280;40801;41.924;25.562;2023-11-21T02:01:23;99368.69;;;5.59;65.66
54900;BME280;40801;41.924;25.562;2023-11-21T02:03:49;99373.72;;;5.71;64.96
54900;BME280;40801;41.924;25.562;2023-11-21T02:06:14;99375.88;;;5.64;65.84
54900;BME280;40801;41.924;25.562;2023-11-21T02:08:40;99365.47;;;5.62;66.11
54900;BME280;40801;41.924;25.562;2023-11-21T02:11:07;99371.09;;;5.60;66.07
54900;BME280;40801;41.924;25.562;2023-11-21T02:13:34;99368.44;;;5.50;65.91
54900;BME280;40801;41.924;25.562;2023-11-21T02:16:00;99384.22;;;5.52;66.15
54900;BME280;40801;41.924;25.562;2023-11-21T02:18:26;99381.81;;;5.50;66.45
54900;BME280;40801;41.924;25.562;2023-11-21T02:20:55;99374.59;;;5.46;66.08
54900;BME280;40801;41.924;25.562;2023-11-21T02:23:20;99383.16;;;5.38;66.54
54900;BME280;40801;41.924;25.562;2023-11-21T02:25:46;99384.75;;;5.39;66.21
54900;BME280;40801;41.924;25.562;2023-11-21T02:28:12;99384.75;;;5.39;66.42
54900;BME280;40801;41.924;25.562;2023-11-21T02:30:40;99377.53;;;5.44;66.17
54900;BME280;40801;41.924;25.562;2023-11-21T02:33:06;99375.16;;;5.38;66.37
54900;BME280;40801;41.924;25.562;2023-11-21T02:35:32;99374.63;;;5.36;66.16
54900;BME280;40801;41.924;25.562;2023-11-21T02:37:57;99373.31;;;5.28;66.62
54900;BME280;40801;41.924;25.562;2023-11-21T02:40:23;99375.97;;;5.23;66.76
54900;BME280;40801;41.924;25.562;2023-11-21T02:42:50;99370.63;;;5.23;67.13
54900;BME280;40801;41.924;25.562;2023-11-21T02:45:17;99365.81;;;5.20;66.86
54900;BME280;40801;41.924;25.562;2023-11-21T02:47:43;99362.34;;;5.19;66.96
54900;BME280;40801;41.924;25.562;2023-11-21T02:50:09;99362.88;;;5.21;66.93
54900;BME280;40801;41.924;25.562;2023-11-21T02:52:35;99353.78;;;5.17;67.10
54900;BME280;40801;41.924;25.562;2023-11-21T02:55:04;99349.25;;;5.13;67.41
54900;BME280;40801;41.924;25.562;2023-11-21T02:57:29;99363.16;;;5.05;67.27
54900;BME280;40801;41.924;25.562;2023-11-21T02:59:55;99361.03;;;5.07;67.34
54900;BME280;40801;41.924;25.562;2023-11-21T03:02:21;99358.06;;;5.08;67.26
54900;BME280;40801;41.924;25.562;2023-11-21T03:04:47;99361.03;;;5.02;67.26
54900;BME280;40801;41.924;25.562;2023-11-21T03:07:15;99365.84;;;5.00;67.44
54900;BME280;40801;41.924;25.562;2023-11-21T03:09:40;99358.91;;;4.98;67.37
54900;BME280;40801;41.924;25.562;2023-11-21T03:12:06;99362.91;;;4.96;67.38
54900;BME280;40801;41.924;25.562;2023-11-21T03:14:32;99366.13;;;4.93;67.76
54900;BME280;40801;41.924;25.562;2023-11-21T03:16:57;99370.09;;;4.90;67.39
54900;BME280;40801;41.924;25.562;2023-11-21T03:19:22;99374.13;;;4.88;67.76
54900;BME280;40801;41.924;25.562;2023-11-21T03:21:48;99363.16;;;4.84;68.09
54900;BME280;40801;41.924;25.562;2023-11-21T03:24:14;99372.50;;;4.87;67.86
54900;BME280;40801;41.924;25.562;2023-11-21T03:26:44;99376.53;;;4.84;67.62
54900;BME280;40801;41.924;25.562;2023-11-21T03:29:10;99374.66;;;4.80;67.81
54900;BME280;40801;41.924;25.562;2023-11-21T03:31:35;99378.66;;;4.77;67.61
54900;BME280;40801;41.924;25.562;2023-11-21T03:34:01;99386.69;;;4.72;68.10
54900;BME280;40801;41.924;25.562;2023-11-21T03:36:26;99387.75;;;4.76;68.20
54900;BME280;40801;41.924;25.562;2023-11-21T03:38:52;99381.59;;;4.76;67.72
54900;BME280;40801;41.924;25.562;2023-11-21T03:41:17;99378.66;;;4.72;67.82
54900;BME280;40801;41.924;25.562;2023-11-21T03:43:43;99386.13;;;4.70;68.28
54900;BME280;40801;41.924;25.562;2023-11-21T03:46:08;99374.63;;;4.59;68.85
54900;BME280;40801;41.924;25.562;2023-11-21T03:48:33;99368.22;;;4.60;68.57
54900;BME280;40801;41.924;25.562;2023-11-21T03:50:59;99373.84;;;4.64;68.72
54900;BME280;40801;41.924;25.562;2023-11-21T03:53:24;99370.63;;;4.62;68.51
54900;BME280;40801;41.924;25.562;2023-11-21T03:55:50;99372.50;;;4.56;67.97
54900;BME280;40801;41.924;25.562;2023-11-21T03:58:15;99366.34;;;4.46;68.63
54900;BME280;40801;41.924;25.562;2023-11-21T04:00:41;99367.41;;;4.50;68.32
54900;BME280;40801;41.924;25.562;2023-11-21T04:03:06;99366.88;;;4.58;68.18
54900;BME280;40801;41.924;25.562;2023-11-21T04:05:32;99368.47;;;4.54;68.44
54900;BME280;40801;41.924;25.562;2023-11-21T04:07:57;99364.75;;;4.50;68.08
54900;BME280;40801;41.924;25.562;2023-11-21T04:10:23;99368.75;;;4.52;68.40
54900;BME280;40801;41.924;25.562;2023-11-21T04:12:48;99367.69;;;4.53;68.38
54900;BME280;40801;41.924;25.562;2023-11-21T04:15:14;99373.56;;;4.55;68.73
54900;BME280;40801;41.924;25.562;2023-11-21T04:17:40;99371.16;;;4.54;68.44
54900;BME280;40801;41.924;25.562;2023-11-21T04:20:07;99365.81;;;4.54;68.72
54900;BME280;40801;41.924;25.562;2023-11-21T04:22:36;99368.22;;;4.50;68.71
54900;BME280;40801;41.924;25.562;2023-11-21T04:25:02;99373.28;;;4.47;68.64
54900;BME280;40801;41.924;25.562;2023-11-21T04:27:27;99381.56;;;4.45;68.55
54900;BME280;40801;41.924;25.562;2023-11-21T04:29:53;99383.16;;;4.41;68.84
54900;BME280;40801;41.924;25.562;2023-11-21T04:32:18;99385.03;;;4.35;68.65
54900;BME280;40801;41.924;25.562;2023-11-21T04:34:44;99398.66;;;4.39;68.77
54900;BME280;40801;41.924;25.562;2023-11-21T04:37:09;99394.66;;;4.47;68.11
54900;BME280;40801;41.924;25.562;2023-11-21T04:39:35;99394.38;;;4.53;68.28
54900;BME280;40801;41.924;25.562;2023-11-21T04:42:01;99388.78;;;4.50;68.09
54900;BME280;40801;41.924;25.562;2023-11-21T04:44:26;99395.19;;;4.59;68.10
54900;BME280;40801;41.924;25.562;2023-11-21T04:46:52;99387.44;;;4.62;68.01
54900;BME280;40801;41.924;25.562;2023-11-21T04:49:17;99381.56;;;4.55;68.19
54900;BME280;40801;41.924;25.562;2023-11-21T04:51:43;99388.78;;;4.55;68.55
54900;BME280;40801;41.924;25.562;2023-11-21T04:54:08;99396.78;;;4.60;67.88
54900;BME280;40801;41.924;25.562;2023-11-21T04:56:34;99401.59;;;4.58;68.32
54900;BME280;40801;41.924;25.562;2023-11-21T04:58:59;99404.81;;;4.55;68.24
54900;BME280;40801;41.924;25.562;2023-11-21T05:01:25;99400.78;;;4.42;69.11
54900;BME280;40801;41.924;25.562;2023-11-21T05:03:50;99395.19;;;4.49;68.55
54900;BME280;40801;41.924;25.562;2023-11-21T05:06:17;99409.06;;;4.51;69.02
54900;BME280;40801;41.924;25.562;2023-11-21T05:08:43;99400.78;;;4.52;68.79
54900;BME280;40801;41.924;25.562;2023-11-21T05:11:08;99392.78;;;4.57;69.15
54900;BME280;40801;41.924;25.562;2023-11-21T05:13:36;99391.75;;;4.63;68.81
54900;BME280;40801;41.924;25.562;2023-11-21T05:16:02;99394.13;;;4.60;69.11
54900;BME280;40801;41.924;25.562;2023-11-21T05:18:29;99398.94;;;4.58;69.13
54900;BME280;40801;41.924;25.562;2023-11-21T05:20:55;99401.88;;;4.61;68.88
54900;BME280;40801;41.924;25.562;2023-11-21T05:23:21;99397.59;;;4.60;68.47
54900;BME280;40801;41.924;25.562;2023-11-21T05:25:46;99403.47;;;4.57;69.01
54900;BME280;40801;41.924;25.562;2023-11-21T05:28:12;99412.31;;;4.68;68.96
54900;BME280;40801;41.924;25.562;2023-11-21T05:30:38;99408.59;;;4.74;69.13
54900;BME280;40801;41.924;25.562;2023-11-21T05:33:06;99411.53;;;4.78;68.74
54900;BME280;40801;41.924;25.562;2023-11-21T05:35:31;99418.47;;;4.84;68.51
54900;BME280;40801;41.924;25.562;2023-11-21T05:37:57;99420.59;;;4.87;68.82
54900;BME280;40801;41.924;25.562;2023-11-21T05:40:22;99420.38;;;4.93;68.81
54900;BME280;40801;41.924;25.562;2023-11-21T05:42:48;99423.56;;;5.01;68.64
54900;BME280;40801;41.924;25.562;2023-11-21T05:45:14;99427.84;;;5.12;68.29
54900;BME280;40801;41.924;25.562;2023-11-21T05:47:42;99417.13;;;5.17;68.54
54900;BME280;40801;41.924;25.562;2023-11-21T05:50:12;99420.38;;;5.24;68.26
54900;BME280;40801;41.924;25.562;2023-11-21T05:52:40;99411.25;;;5.30;68.02
54900;BME280;40801;41.924;25.562;2023-11-21T05:55:06;99413.38;;;5.38;68.19
54900;BME280;40801;41.924;25.562;2023-11-21T05:57:35;99414.69;;;5.46;68.13
54900;BME280;40801;41.924;25.562;2023-11-21T06:00:08;99417.91;;;5.53;68.29
54900;BME280;40801;41.924;25.562;2023-11-21T06:02:52;99412.81;;;5.56;67.96
54900;BME280;40801;41.924;25.562;2023-11-21T06:05:19;99417.88;;;5.68;68.16
54900;BME280;40801;41.924;25.562;2023-11-21T06:07:46;99410.09;;;5.77;67.73
54900;BME280;40801;41.924;25.562;2023-11-21T06:10:12;99422.38;;;5.78;67.90
54900;BME280;40801;41.924;25.562;2023-11-21T06:12:39;99425.31;;;5.86;67.87
54900;BME280;40801;41.924;25.562;2023-11-21T06:15:09;99418.88;;;5.98;67.35
54900;BME280;40801;41.924;25.562;2023-11-21T06:17:35;99423.41;;;6.07;66.81
54900;BME280;40801;41.924;25.562;2023-11-21T06:20:05;99423.91;;;6.14;66.97
54900;BME280;40801;41.924;25.562;2023-11-21T06:22:38;99427.63;;;6.24;66.89
54900;BME280;40801;41.924;25.562;2023-11-21T06:25:04;99422.50;;;6.27;67.83
54900;BME280;40801;41.924;25.562;2023-11-21T06:27:32;99424.59;;;6.40;66.71
54900;BME280;40801;41.924;25.562;2023-11-21T06:29:58;99431.78;;;6.50;67.25
54900;BME280;40801;41.924;25.562;2023-11-21T06:32:23;99419.38;;;6.59;67.10
54900;BME280;40801;41.924;25.562;2023-11-21T06:34:48;99429.78;;;6.71;67.84
54900;BME280;40801;41.924;25.562;2023-11-21T06:37:15;99427.59;;;6.78;67.62
54900;BME280;40801;41.924;25.562;2023-11-21T06:39:40;99426.44;;;6.89;67.12
54900;BME280;40801;41.924;25.562;2023-11-21T06:42:06;99426.31;;;7.04;66.70
54900;BME280;40801;41.924;25.562;2023-11-21T06:44:32;99424.22;;;7.01;67.21
54900;BME280;40801;41.924;25.562;2023-11-21T06:46:58;99423.50;;;7.20;66.76
54900;BME280;40801;41.924;25.562;2023-11-21T06:49:24;99420.25;;;7.57;67.66
54900;BME280;40801;41.924;25.562;2023-11-21T06:51:49;99418.63;;;8.27;66.98
54900;BME280;40801;41.924;25.562;2023-11-21T06:54:15;99410.88;;;9.01;66.26
54900;BME280;40801;41.924;25.562;2023-11-21T06:56:40;99401.44;;;9.50;64.48
54900;BME280;40801;41.924;25.562;2023-11-21T06:59:06;99400.47;;;9.73;63.95
54900;BME280;40801;41.924;25.562;2023-11-21T07:01:31;99399.06;;;10.17;63.38
54900;BME280;40801;41.924;25.562;2023-11-21T07:04:04;99391.44;;;10.82;61.71
54900;BME280;40801;41.924;25.562;2023-11-21T07:06:30;99387.91;;;11.49;60.52
54900;BME280;40801;41.924;25.562;2023-11-21T07:08:56;99385.97;;;12.29;59.62
54900;BME280;40801;41.924;25.562;2023-11-21T07:11:22;99386.81;;;12.73;58.01
54900;BME280;40801;41.924;25.562;2023-11-21T07:13:47;99383.31;;;12.81;56.74
54900;BME280;40801;41.924;25.562;2023-11-21T07:16:13;99384.25;;;13.02;55.75
54900;BME280;40801;41.924;25.562;2023-11-21T07:18:40;99386.66;;;13.03;54.67
54900;BME280;40801;41.924;25.562;2023-11-21T07:21:05;99388.66;;;13.41;55.39
54900;BME280;40801;41.924;25.562;2023-11-21T07:23:31;99387.44;;;14.06;54.87
54900;BME280;40801;41.924;25.562;2023-11-21T07:25:56;99381.97;;;14.65;53.55
54900;BME280;40801;41.924;25.562;2023-11-21T07:28:24;99377.22;;;15.16;52.57
54900;BME280;40801;41.924;25.562;2023-11-21T07:30:51;99370.03;;;15.57;51.17
54900;BME280;40801;41.924;25.562;2023-11-21T07:33:16;99364.53;;;16.14;50.66
54900;BME280;40801;41.924;25.562;2023-11-21T07:35:42;99368.22;;;16.58;49.26
54900;BME280;40801;41.924;25.562;2023-11-21T07:38:08;99367.06;;;16.99;48.40
54900;BME280;40801;41.924;25.562;2023-11-21T07:40:33;99358.44;;;17.41;47.62
54900;BME280;40801;41.924;25.562;2023-11-21T07:42:59;99367.25;;;17.98;47.07
54900;BME280;40801;41.924;25.562;2023-11-21T07:45:25;99370.19;;;18.59;46.09
54900;BME280;40801;41.924;25.562;2023-11-21T07:47:53;99377.63;;;19.16;44.62
54900;BME280;40801;41.924;25.562;2023-11-21T07:50:19;99371.81;;;19.41;43.72
54900;BME280;40801;41.924;25.562;2023-11-21T07:52:45;99382.97;;;19.74;42.21
54900;BME280;40801;41.924;25.562;2023-11-21T07:55:11;99379.44;;;19.32;41.88
54900;BME280;40801;41.924;25.562;2023-11-21T07:57:37;99367.41;;;19.36;41.77
54900;BME280;40801;41.924;25.562;2023-11-21T08:00:04;99375.97;;;19.54;41.42
54900;BME280;40801;41.924;25.562;2023-11-21T08:02:31;99361.41;;;19.69;41.28
54900;BME280;40801;41.924;25.562;2023-11-21T08:04:57;99372.44;;;19.76;40.83
54900;BME280;40801;41.924;25.562;2023-11-21T08:07:22;99366.50;;;19.71;40.81
54900;BME280;40801;41.924;25.562;2023-11-21T08:09:48;99376.66;;;19.70;40.37
54900;BME280;40801;41.924;25.562;2023-11-21T08:12:15;99357.72;;;19.62;40.40
54900;BME280;40801;41.924;25.562;2023-11-21T08:14:40;99370.88;;;19.10;41.33
54900;BME280;40801;41.924;25.562;2023-11-21T08:17:06;99368.44;;;19.70;40.98
54900;BME280;40801;41.924;25.562;2023-11-21T08:19:31;99350.66;;;20.36;40.42
54900;BME280;40801;41.924;25.562;2023-11-21T08:21:58;99357.78;;;21.04;39.64
54900;BME280;40801;41.924;25.562;2023-11-21T08:24:24;99356.38;;;21.55;38.97
54900;BME280;40801;41.924;25.562;2023-11-21T08:26:50;99344.03;;;21.79;38.24
54900;BME280;40801;41.924;25.562;2023-11-21T08:29:17;99347.59;;;21.86;38.00
54900;BME280;40801;41.924;25.562;2023-11-21T08:34:12;99347.59;;;22.41;37.19
54900;BME280;40801;41.924;25.562;2023-11-21T08:36:44;99349.69;;;22.69;35.99
54900;BME280;40801;41.924;25.562;2023-11-21T08:39:10;99356.13;;;23.05;36.59
54900;BME280;40801;41.924;25.562;2023-11-21T08:41:36;99345.91;;;23.13;36.32
54900;BME280;40801;41.924;25.562;2023-11-21T08:44:02;99342.09;;;23.71;35.63
54900;BME280;40801;41.924;25.562;2023-11-21T08:46:32;99334.22;;;23.73;35.34
54900;BME280;40801;41.924;25.562;2023-11-21T08:49:00;99331.00;;;24.35;34.69
54900;BME280;40801;41.924;25.562;2023-11-21T08:51:26;99326.19;;;24.53;34.33
54900;BME280;40801;41.924;25.562;2023-11-21T08:53:51;99319.50;;;24.51;33.99
54900;BME280;40801;41.924;25.562;2023-11-21T08:56:17;99320.72;;;25.26;33.48
54900;BME280;40801;41.924;25.562;2023-11-21T08:58:43;99314.97;;;25.58;32.75
54900;BME280;40801;41.924;25.562;2023-11-21T09:01:09;99299.81;;;25.81;32.84
54900;BME280;40801;41.924;25.562;2023-11-21T09:03:34;99305.75;;;26.17;32.16
54900;BME280;40801;41.924;25.562;2023-11-21T09:06:00;99293.03;;;26.61;31.91
54900;BME280;40801;41.924;25.562;2023-11-21T09:08:26;99299.56;;;26.74;31.32
54900;BME280;40801;41.924;25.562;2023-11-21T09:10:53;99291.16;;;26.81;31.55
54900;BME280;40801;41.924;25.562;2023-11-21T09:13:18;99287.16;;;27.39;30.10
54900;BME280;40801;41.924;25.562;2023-11-21T09:15:44;99285.31;;;26.75;31.01
54900;BME280;40801;41.924;25.562;2023-11-21T09:18:13;99276.06;;;26.85;30.67
54900;BME280;40801;41.924;25.562;2023-11-21T09:20:38;99281.78;;;27.29;30.13
54900;BME280;40801;41.924;25.562;2023-11-21T09:23:04;99283.03;;;26.97;30.24
54900;BME280;40801;41.924;25.562;2023-11-21T09:25:29;99281.22;;;26.83;29.69
54900;BME280;40801;41.924;25.562;2023-11-21T09:27:55;99266.72;;;25.74;31.09
54900;BME280;40801;41.924;25.562;2023-11-21T09:30:22;99268.00;;;25.58;31.72
54900;BME280;40801;41.924;25.562;2023-11-21T09:32:50;99266.81;;;25.59;31.76
54900;BME280;40801;41.924;25.562;2023-11-21T09:35:15;99260.25;;;25.43;32.26
54900;BME280;40801;41.924;25.562;2023-11-21T09:37:46;99258.38;;;26.15;31.75
54900;BME280;40801;41.924;25.562;2023-11-21T09:40:11;99252.94;;;26.08;30.93
54900;BME280;40801;41.924;25.562;2023-11-21T09:42:40;99246.59;;;27.02;30.67
54900;BME280;40801;41.924;25.562;2023-11-21T09:45:25;99240.00;;;26.93;29.33
54900;BME280;40801;41.924;25.562;2023-11-21T09:47:52;99239.72;;;26.57;30.30
54900;BME280;40801;41.924;25.562;2023-11-21T09:50:20;99237.13;;;26.73;30.25
54900;BME280;40801;41.924;25.562;2023-11-21T09:55:44;99231.00;;;27.62;29.85
54900;BME280;40801;41.924;25.562;2023-11-21T09:58:10;99219.09;;;27.85;29.84
54900;BME280;40801;41.924;25.562;2023-11-21T10:00:40;99218.69;;;28.06;29.17
54900;BME280;40801;41.924;25.562;2023-11-21T10:03:06;99213.06;;;28.30;28.56
54900;BME280;40801;41.924;25.562;2023-11-21T10:05:32;99207.63;;;27.63;29.26
54900;BME280;40801;41.924;25.562;2023-11-21T10:07:59;99205.84;;;26.76;30.36
54900;BME280;40801;41.924;25.562;2023-11-21T10:10:25;99200.91;;;26.03;31.41
54900;BME280;40801;41.924;25.562;2023-11-21T10:12:55;99203.72;;;25.13;33.18
54900;BME280;40801;41.924;25.562;2023-11-21T10:15:22;99187.91;;;24.62;34.12
54900;BME280;40801;41.924;25.562;2023-11-21T10:17:52;99192.50;;;24.79;34.63
54900;BME280;40801;41.924;25.562;2023-11-21T10:20:19;99185.97;;;24.59;34.97
54900;BME280;40801;41.924;25.562;2023-11-21T10:22:45;99179.59;;;24.69;35.01
54900;BME280;40801;41.924;25.562;2023-11-21T10:25:11;99183.22;;;24.59;35.16
54900;BME280;40801;41.924;25.562;2023-11-21T10:27:40;99171.03;;;24.49;35.82
54900;BME280;40801;41.924;25.562;2023-11-21T10:30:07;99169.31;;;24.73;35.51
54900;BME280;40801;41.924;25.562;2023-11-21T10:32:41;99174.81;;;25.28;34.51
54900;BME280;40801;41.924;25.562;2023-11-21T10:35:09;99169.28;;;25.66;33.65
54900;BME280;40801;41.924;25.562;2023-11-21T10:37:40;99162.78;;;25.87;33.35
54900;BME280;40801;41.924;25.562;2023-11-21T10:40:10;99157.81;;;26.05;33.25
54900;BME280;40801;41.924;25.562;2023-11-21T10:42:39;99150.53;;;26.49;32.50
54900;BME280;40801;41.924;25.562;2023-11-21T10:45:06;99148.13;;;26.51;32.83
54900;BME280;40801;41.924;25.562;2023-11-21T10:47:39;99146.59;;;26.73;32.53
54900;BME280;40801;41.924;25.562;2023-11-21T10:50:05;99138.16;;;27.07;31.66
54900;BME280;40801;41.924;25.562;2023-11-21T10:52:31;99131.50;;;27.48;31.21
54900;BME280;40801;41.924;25.562;2023-11-21T10:54:56;99126.50;;;27.39;31.07
54900;BME280;40801;41.924;25.562;2023-11-21T10:57:24;99120.72;;;27.54;30.81
54900;BME280;40801;41.924;25.562;2023-11-21T10:59:53;99133.88;;;27.26;31.85
54900;BME280;40801;41.924;25.562;2023-11-21T11:02:25;99114.56;;;28.22;30.55
54900;BME280;40801;41.924;25.562;2023-11-21T11:04:58;99101.72;;;28.48;30.66
54900;BME280;40801;41.924;25.562;2023-11-21T11:07:26;99112.72;;;28.84;29.55
54900;BME280;40801;41.924;25.562;2023-11-21T11:09:54;99103.03;;;28.76;29.91
54900;BME280;40801;41.924;25.562;2023-11-21T11:12:20;99097.28;;;28.34;29.68
54900;BME280;40801;41.924;25.562;2023-11-21T11:14:46;99083.63;;;28.07;29.84
54900;BME280;40801;41.924;25.562;2023-11-21T11:17:14;99093.28;;;27.99;29.44
54900;BME280;40801;41.924;25.562;2023-11-21T11:19:39;99094.09;;;28.16;28.90
54900;BME280;40801;41.924;25.562;2023-11-21T11:22:17;99101.28;;;28.13;28.69
54900;BME280;40801;41.924;25.562;2023-11-21T11:25:07;99096.34;;;27.45;30.07
54900;BME280;40801;41.924;25.562;2023-11-21T11:38:33;99095.94;;;24.34;31.57
54900;BME280;40801;41.924;25.562;2023-11-21T11:41:02;99101.16;;;24.74;31.06
54900;BME280;40801;41.924;25.562;2023-11-21T11:43:29;99089.22;;;24.84;31.15
54900;BME280;40801;41.924;25.562;2023-11-21T11:46:01;99088.09;;;24.22;32.50
54900;BME280;40801;41.924;25.562;2023-11-21T11:48:29;99088.56;;;24.10;32.61
54900;BME280;40801;41.924;25.562;2023-11-21T11:51:04;99081.28;;;23.68;35.35
54900;BME280;40801;41.924;25.562;2023-11-21T11:53:37;99071.59;;;23.28;36.13
54900;BME280;40801;41.924;25.562;2023-11-21T11:56:23;99074.75;;;23.05;37.38
54900;BME280;40801;41.924;25.562;2023-11-21T11:58:52;99066.91;;;22.78;37.00
54900;BME280;40801;41.924;25.562;2023-11-21T12:01:21;99075.56;;;22.48;38.15
54900;BME280;40801;41.924;25.562;2023-11-21T12:06:51;99077.34;;;21.80;39.77
54900;BME280;40801;41.924;25.562;2023-11-21T12:09:23;99062.34;;;21.53;40.86
54900;BME280;40801;41.924;25.562;2023-11-21T12:11:49;99066.69;;;21.57;40.50
54900;BME280;40801;41.924;25.562;2023-11-21T12:14:16;99069.00;;;21.48;40.47
54900;BME280;40801;41.924;25.562;2023-11-21T12:16:42;99063.50;;;21.45;41.01
54900;BME280;40801;41.924;25.562;2023-11-21T12:19:09;99058.72;;;21.31;41.60
54900;BME280;40801;41.924;25.562;2023-11-21T12:21:36;99045.03;;;21.38;41.45
54900;BME280;40801;41.924;25.562;2023-11-21T12:24:02;99037.16;;;21.33;41.94
54900;BME280;40801;41.924;25.562;2023-11-21T12:26:28;99034.75;;;21.21;42.10
54900;BME280;40801;41.924;25.562;2023-11-21T12:28:53;99024.94;;;21.16;41.84
54900;BME280;40801;41.924;25.562;2023-11-21T12:31:22;99016.97;;;20.93;42.78
54900;BME280;40801;41.924;25.562;2023-11-21T12:33:48;99012.84;;;20.62;43.47
54900;BME280;40801;41.924;25.562;2023-11-21T12:36:13;99002.66;;;20.59;43.64
54900;BME280;40801;41.924;25.562;2023-11-21T12:38:39;99013.47;;;20.41;44.32
54900;BME280;40801;41.924;25.562;2023-11-21T12:41:05;99005.81;;;20.21;45.10
54900;BME280;40801;41.924;25.562;2023-11-21T12:43:32;99000.59;;;20.05;45.38
54900;BME280;40801;41.924;25.562;2023-11-21T12:46:08;99002.13;;;19.99;46.39
54900;BME280;40801;41.924;25.562;2023-11-21T12:48:37;98996.50;;;19.88;46.42
54900;BME280;40801;41.924;25.562;2023-11-21T12:51:05;99006.03;;;19.64;46.79
54900;BME280;40801;41.924;25.562;2023-11-21T12:53:32;99007.44;;;19.51;47.40
54900;BME280;40801;41.924;25.562;2023-11-21T12:56:05;99002.28;;;19.46;47.56
54900;BME280;40801;41.924;25.562;2023-11-21T12:58:31;99003.59;;;19.26;48.31
54900;BME280;40801;41.924;25.562;2023-11-21T13:00:59;99003.56;;;19.22;48.10
54900;BME280;40801;41.924;25.562;2023-11-21T13:03:24;99011.84;;;18.99;48.99
54900;BME280;40801;41.924;25.562;2023-11-21T13:05:51;99010.44;;;18.82;49.59
54900;BME280;40801;41.924;25.562;2023-11-21T13:08:21;99015.91;;;18.82;49.53
54900;BME280;40801;41.924;25.562;2023-11-21T13:10:54;99018.16;;;18.77;50.21
54900;BME280;40801;41.924;25.562;2023-11-21T13:13:21;99008.81;;;18.78;49.87